createdAt,value
2018-03-16T00:00:37.966Z,993.59
2018-03-16T00:01:37.974Z,993.64
2018-03-16T00:02:37.979Z,993.59
2018-03-16T00:03:37.979Z,993.55
2018-03-16T00:04:37.974Z,993.59
2018-03-16T00:05:37.983Z,993.54
2018-03-16T00:06:37.985Z,993.54
2018-03-16T00:07:37.996Z,993.53
2018-03-16T00:08:37.994Z,993.53
2018-03-16T00:09:37.995Z,993.54
2018-03-16T00:10:37.994Z,993.57
2018-03-16T00:11:37.999Z,993.58
2018-03-16T00:12:37.999Z,993.55
2018-03-16T00:13:38.001Z,993.54
2018-03-16T00:14:38.018Z,993.57
2018-03-16T00:15:38.018Z,993.55
2018-03-16T00:16:38.018Z,993.62
2018-03-16T00:17:38.017Z,993.58
2018-03-16T00:18:38.010Z,993.58
2018-03-16T00:19:38.014Z,993.54
2018-03-16T00:20:38.018Z,993.55
2018-03-16T00:21:38.020Z,993.57
2018-03-16T00:22:38.026Z,993.56
2018-03-16T00:23:38.023Z,993.59
2018-03-16T00:24:38.025Z,993.60
2018-03-16T00:25:38.595Z,993.59
2018-03-16T00:26:38.022Z,993.58
2018-03-16T00:27:38.033Z,993.61
2018-03-16T00:28:38.033Z,993.65
2018-03-16T00:29:38.034Z,993.62
2018-03-16T00:30:38.039Z,993.63
2018-03-16T00:31:38.050Z,993.62
2018-03-16T00:32:38.049Z,993.60
2018-03-16T00:33:38.054Z,993.62
2018-03-16T00:34:38.042Z,993.61
2018-03-16T00:35:38.059Z,993.61
2018-03-16T00:36:38.054Z,993.63
2018-03-16T00:37:38.057Z,993.62
2018-03-16T00:38:38.064Z,993.64
2018-03-16T00:39:38.067Z,993.64
2018-03-16T00:40:38.068Z,993.71
2018-03-16T00:41:38.096Z,993.72
2018-03-16T00:42:38.065Z,993.72
2018-03-16T00:43:38.063Z,993.72
2018-03-16T00:44:38.072Z,993.71
2018-03-16T00:45:38.076Z,993.77
2018-03-16T00:46:38.067Z,993.76
2018-03-16T00:47:38.078Z,993.80
2018-03-16T00:48:38.074Z,993.80
2018-03-16T00:49:38.082Z,993.79
2018-03-16T00:50:38.076Z,993.74
2018-03-16T00:51:38.082Z,993.79
2018-03-16T00:52:38.082Z,993.75
2018-03-16T00:53:38.092Z,993.76
2018-03-16T00:54:38.086Z,993.76
2018-03-16T00:55:38.090Z,993.75
2018-03-16T00:56:38.091Z,993.74
2018-03-16T00:57:38.101Z,993.73
2018-03-16T00:58:38.102Z,993.73
2018-03-16T00:59:38.128Z,993.73
2018-03-16T01:00:38.099Z,993.77
2018-03-16T01:01:38.117Z,993.78
2018-03-16T01:02:38.122Z,993.76
2018-03-16T01:03:38.138Z,993.80
2018-03-16T01:04:38.107Z,993.83
2018-03-16T01:05:38.106Z,993.84
2018-03-16T01:06:38.110Z,993.86
2018-03-16T01:07:38.111Z,993.88
2018-03-16T01:08:38.115Z,993.83
2018-03-16T01:09:38.112Z,993.94
2018-03-16T01:10:38.114Z,993.93
2018-03-16T01:11:38.120Z,993.91
2018-03-16T01:12:38.217Z,993.93
2018-03-16T01:13:38.116Z,993.86
2018-03-16T01:14:38.126Z,993.87
2018-03-16T01:15:38.130Z,993.85
2018-03-16T01:16:38.137Z,993.91
2018-03-16T01:17:38.143Z,993.87
2018-03-16T01:18:38.139Z,993.87
2018-03-16T01:19:38.145Z,993.88
2018-03-16T01:20:38.157Z,993.85
2018-03-16T01:21:38.152Z,993.81
2018-03-16T01:22:38.137Z,993.81
2018-03-16T01:23:38.172Z,993.81
2018-03-16T01:24:38.151Z,993.81
2018-03-16T01:25:38.155Z,993.78
2018-03-16T01:26:38.153Z,993.85
2018-03-16T01:27:38.146Z,993.79
2018-03-16T01:28:38.151Z,993.77
2018-03-16T01:29:38.161Z,993.74
2018-03-16T01:30:38.161Z,993.76
2018-03-16T01:31:38.166Z,993.76
2018-03-16T01:32:38.160Z,993.75
2018-03-16T01:33:38.161Z,993.71
2018-03-16T01:34:38.167Z,993.75
2018-03-16T01:35:38.167Z,993.73
2018-03-16T01:36:38.176Z,993.76
2018-03-16T01:37:38.176Z,993.69
2018-03-16T01:38:38.185Z,993.77
2018-03-16T01:39:38.183Z,993.76
2018-03-16T01:40:38.183Z,993.77
2018-03-16T01:41:38.177Z,993.72
2018-03-16T01:42:38.193Z,993.72
2018-03-16T01:43:38.200Z,993.70
2018-03-16T01:44:38.196Z,993.72
2018-03-16T01:45:38.205Z,993.65
2018-03-16T01:46:38.199Z,993.70
2018-03-16T01:47:38.198Z,993.64
2018-03-16T01:48:38.202Z,993.66
2018-03-16T01:49:38.229Z,993.64
2018-03-16T01:50:38.195Z,993.67
2018-03-16T01:51:38.199Z,993.66
2018-03-16T01:52:38.208Z,993.71
2018-03-16T01:53:38.201Z,993.68
2018-03-16T01:54:38.201Z,993.67
2018-03-16T01:55:38.217Z,993.72
2018-03-16T01:56:38.212Z,993.70
2018-03-16T01:57:38.212Z,993.69
2018-03-16T01:58:39.099Z,993.73
2018-03-16T01:59:38.220Z,993.72
2018-03-16T02:00:38.226Z,993.73
2018-03-16T02:01:38.218Z,993.72
2018-03-16T02:02:38.241Z,993.74
2018-03-16T02:03:38.240Z,993.78
2018-03-16T02:04:38.257Z,993.79
2018-03-16T02:05:38.236Z,993.81
2018-03-16T02:06:38.243Z,993.80
2018-03-16T02:07:38.234Z,993.81
2018-03-16T02:08:38.237Z,993.87
2018-03-16T02:09:38.253Z,993.93
2018-03-16T02:10:38.250Z,993.90
2018-03-16T02:11:38.245Z,993.95
2018-03-16T02:12:38.251Z,993.92
2018-03-16T02:13:38.247Z,993.84
2018-03-16T02:14:38.252Z,993.90
2018-03-16T02:15:38.257Z,993.92
2018-03-16T02:16:38.261Z,993.90
2018-03-16T02:17:38.255Z,993.92
2018-03-16T02:18:38.255Z,993.93
2018-03-16T02:19:38.267Z,993.95
2018-03-16T02:20:38.269Z,993.94
2018-03-16T02:21:38.265Z,993.90
2018-03-16T02:22:38.271Z,993.89
2018-03-16T02:23:38.300Z,993.91
2018-03-16T02:24:38.282Z,993.92
2018-03-16T02:25:38.281Z,993.89
2018-03-16T02:26:38.286Z,993.86
2018-03-16T02:27:38.303Z,993.86
2018-03-16T02:28:38.291Z,993.82
2018-03-16T02:29:38.285Z,993.75
2018-03-16T02:30:40.465Z,993.78
2018-03-16T02:31:39.963Z,993.80
2018-03-16T02:32:38.294Z,993.81
2018-03-16T02:33:38.299Z,993.69
2018-03-16T02:34:38.298Z,993.60
2018-03-16T02:35:38.310Z,993.82
2018-03-16T02:36:38.291Z,993.90
2018-03-16T02:37:38.312Z,993.92
2018-03-16T02:38:38.305Z,993.88
2018-03-16T02:39:38.313Z,993.86
2018-03-16T02:40:38.308Z,993.88
2018-03-16T02:41:38.308Z,993.89
2018-03-16T02:42:38.311Z,993.90
2018-03-16T02:43:38.319Z,993.89
2018-03-16T02:44:38.324Z,993.94
2018-03-16T02:45:38.325Z,993.90
2018-03-16T02:46:38.327Z,993.87
2018-03-16T02:47:38.334Z,993.91
2018-03-16T02:48:38.332Z,993.87
2018-03-16T02:49:38.328Z,993.84
2018-03-16T02:50:38.392Z,993.85
2018-03-16T02:51:38.324Z,993.85
2018-03-16T02:52:38.338Z,993.82
2018-03-16T02:53:38.335Z,993.80
2018-03-16T02:54:38.338Z,993.80
2018-03-16T02:55:38.343Z,993.80
2018-03-16T02:56:38.361Z,993.82
2018-03-16T02:57:38.357Z,993.85
2018-03-16T02:58:38.344Z,993.81
2018-03-16T02:59:38.359Z,993.87
2018-03-16T03:00:38.348Z,993.87
2018-03-16T03:01:38.348Z,993.87
2018-03-16T03:02:38.352Z,993.88
2018-03-16T03:03:38.357Z,993.87
2018-03-16T03:04:38.364Z,993.87
2018-03-16T03:05:38.398Z,993.94
2018-03-16T03:06:38.363Z,993.88
2018-03-16T03:07:38.374Z,993.86
2018-03-16T03:08:38.370Z,993.89
2018-03-16T03:09:38.376Z,993.89
2018-03-16T03:10:38.365Z,993.91
2018-03-16T03:11:38.379Z,993.92
2018-03-16T03:12:38.382Z,993.93
2018-03-16T03:13:38.377Z,993.93
2018-03-16T03:14:38.372Z,993.91
2018-03-16T03:15:38.380Z,993.98
2018-03-16T03:16:38.385Z,993.92
2018-03-16T03:17:38.379Z,993.93
2018-03-16T03:18:38.382Z,993.91
2018-03-16T03:19:38.394Z,993.96
2018-03-16T03:20:38.393Z,993.99
2018-03-16T03:21:38.395Z,993.94
2018-03-16T03:22:38.397Z,993.94
2018-03-16T03:23:38.397Z,993.95
2018-03-16T03:24:38.406Z,993.91
2018-03-16T03:25:38.399Z,993.91
2018-03-16T03:26:38.417Z,993.98
2018-03-16T03:27:38.415Z,993.95
2018-03-16T03:28:38.469Z,993.96
2018-03-16T03:29:38.406Z,993.99
2018-03-16T03:30:38.405Z,993.96
2018-03-16T03:31:38.415Z,993.98
2018-03-16T03:32:38.414Z,994.07
2018-03-16T03:33:38.415Z,994.02
2018-03-16T03:34:38.424Z,994.06
2018-03-16T03:35:38.422Z,994.09
2018-03-16T03:36:38.419Z,994.06
2018-03-16T03:37:38.426Z,994.09
2018-03-16T03:38:38.422Z,994.11
2018-03-16T03:39:38.430Z,994.11
2018-03-16T03:40:38.434Z,994.17
2018-03-16T03:41:38.434Z,994.18
2018-03-16T03:42:38.438Z,994.15
2018-03-16T03:43:38.441Z,994.20
2018-03-16T03:44:38.453Z,994.14
2018-03-16T03:45:38.450Z,994.16
2018-03-16T03:46:38.452Z,994.20
2018-03-16T03:47:38.463Z,994.20
2018-03-16T03:48:38.453Z,994.20
2018-03-16T03:49:38.453Z,994.25
2018-03-16T03:50:38.453Z,994.25
2018-03-16T03:51:38.463Z,994.27
2018-03-16T03:52:38.465Z,994.25
2018-03-16T03:53:38.462Z,994.27
2018-03-16T03:54:38.462Z,994.25
2018-03-16T03:55:38.465Z,994.28
2018-03-16T03:56:38.468Z,994.26
2018-03-16T03:57:38.467Z,994.31
2018-03-16T03:58:38.498Z,994.32
2018-03-16T03:59:38.485Z,994.32
2018-03-16T04:00:38.476Z,994.26
2018-03-16T04:01:38.480Z,994.29
2018-03-16T04:02:38.481Z,994.29
2018-03-16T04:03:38.485Z,994.32
2018-03-16T04:04:38.492Z,994.33
2018-03-16T04:05:38.484Z,994.31
2018-03-16T04:06:38.504Z,994.35
2018-03-16T04:07:38.496Z,994.34
2018-03-16T04:08:38.509Z,994.41
2018-03-16T04:09:38.515Z,994.37
2018-03-16T04:10:38.497Z,994.41
2018-03-16T04:11:38.490Z,994.38
2018-03-16T04:12:38.501Z,994.38
2018-03-16T04:13:38.490Z,994.40
2018-03-16T04:14:38.505Z,994.40
2018-03-16T04:15:38.499Z,994.39
2018-03-16T04:16:38.509Z,994.46
2018-03-16T04:17:38.499Z,994.42
2018-03-16T04:18:38.501Z,994.41
2018-03-16T04:19:39.132Z,994.44
2018-03-16T04:20:38.510Z,994.40
2018-03-16T04:21:38.514Z,994.42
2018-03-16T04:22:38.512Z,994.42
2018-03-16T04:23:38.536Z,994.44
2018-03-16T04:24:38.518Z,994.49
2018-03-16T04:25:38.521Z,994.49
2018-03-16T04:26:38.535Z,994.47
2018-03-16T04:27:38.534Z,994.52
2018-03-16T04:28:38.536Z,994.50
2018-03-16T04:29:38.544Z,994.48
2018-03-16T04:30:38.525Z,994.52
2018-03-16T04:31:38.564Z,994.52
2018-03-16T04:32:38.555Z,994.50
2018-03-16T04:33:38.537Z,994.54
2018-03-16T04:34:38.539Z,994.55
2018-03-16T04:35:38.536Z,994.55
2018-03-16T04:36:38.538Z,994.57
2018-03-16T04:37:38.542Z,994.57
2018-03-16T04:38:38.537Z,994.56
2018-03-16T04:39:38.549Z,994.54
2018-03-16T04:40:38.558Z,994.62
2018-03-16T04:41:38.554Z,994.57
2018-03-16T04:42:38.557Z,994.56
2018-03-16T04:43:38.551Z,994.60
2018-03-16T04:44:38.556Z,994.59
2018-03-16T04:45:38.560Z,994.59
2018-03-16T04:46:38.563Z,994.61
2018-03-16T04:47:38.567Z,994.66
2018-03-16T04:48:38.565Z,994.65
2018-03-16T04:49:38.592Z,994.64
2018-03-16T04:50:38.586Z,994.62
2018-03-16T04:51:38.579Z,994.66
2018-03-16T04:52:38.578Z,994.66
2018-03-16T04:53:38.565Z,994.68
2018-03-16T04:54:38.576Z,994.66
2018-03-16T04:55:38.575Z,994.67
2018-03-16T04:56:38.579Z,994.67
2018-03-16T04:57:38.573Z,994.65
2018-03-16T04:58:38.584Z,994.69
2018-03-16T04:59:38.587Z,994.67
2018-03-16T05:00:38.580Z,994.70
2018-03-16T05:01:38.598Z,994.73
2018-03-16T05:02:38.585Z,994.71
2018-03-16T05:03:38.590Z,994.70
2018-03-16T05:04:38.584Z,994.77
2018-03-16T05:05:38.592Z,994.71
2018-03-16T05:06:38.594Z,994.70
2018-03-16T05:07:38.604Z,994.72
2018-03-16T05:08:38.599Z,994.74
2018-03-16T05:09:38.609Z,994.75
2018-03-16T05:10:38.629Z,994.74
2018-03-16T05:11:38.612Z,994.74
2018-03-16T05:12:38.634Z,994.77
2018-03-16T05:13:38.611Z,994.82
2018-03-16T05:14:38.602Z,994.74
2018-03-16T05:15:38.657Z,994.74
2018-03-16T05:16:39.148Z,994.83
2018-03-16T05:17:38.610Z,994.82
2018-03-16T05:18:38.610Z,994.84
2018-03-16T05:19:38.612Z,994.84
2018-03-16T05:20:38.615Z,994.81
2018-03-16T05:21:38.618Z,994.85
2018-03-16T05:22:38.614Z,994.89
2018-03-16T05:23:38.623Z,994.89
2018-03-16T05:24:38.620Z,994.89
2018-03-16T05:25:38.622Z,994.94
2018-03-16T05:26:38.620Z,994.96
2018-03-16T05:27:38.624Z,994.98
2018-03-16T05:28:38.631Z,994.96
2018-03-16T05:29:38.631Z,994.98
2018-03-16T05:30:38.646Z,995.06
2018-03-16T05:31:38.640Z,995.01
2018-03-16T05:32:38.641Z,995.03
2018-03-16T05:33:38.656Z,995.04
2018-03-16T05:34:38.652Z,995.03
2018-03-16T05:35:38.645Z,995.04
2018-03-16T05:36:38.643Z,995.09
2018-03-16T05:37:38.650Z,995.09
2018-03-16T05:38:38.649Z,995.09
2018-03-16T05:39:38.700Z,995.07
2018-03-16T05:40:38.709Z,995.15
2018-03-16T05:41:38.697Z,995.11
2018-03-16T05:42:38.658Z,995.10
2018-03-16T05:43:38.657Z,995.14
2018-03-16T05:44:38.738Z,995.16
2018-03-16T05:45:38.671Z,995.15
2018-03-16T05:46:38.761Z,995.16
2018-03-16T05:47:38.762Z,995.13
2018-03-16T05:48:38.759Z,995.19
2018-03-16T05:49:38.674Z,995.17
2018-03-16T05:50:38.733Z,995.25
2018-03-16T05:51:38.676Z,995.20
2018-03-16T05:52:38.689Z,995.14
2018-03-16T05:53:38.669Z,995.16
2018-03-16T05:54:38.688Z,995.19
2018-03-16T05:55:38.684Z,995.29
2018-03-16T05:56:38.699Z,995.24
2018-03-16T05:57:38.856Z,995.36
2018-03-16T05:58:38.689Z,995.30
2018-03-16T05:59:38.696Z,995.37
2018-03-16T06:00:38.751Z,995.35
2018-03-16T06:01:38.676Z,995.37
2018-03-16T06:02:38.680Z,995.38
2018-03-16T06:03:38.690Z,995.41
2018-03-16T06:04:38.723Z,995.38
2018-03-16T06:05:38.687Z,995.43
2018-03-16T06:06:38.697Z,995.43
2018-03-16T06:07:39.049Z,995.38
2018-03-16T06:08:38.708Z,995.42
2018-03-16T06:09:38.708Z,995.42
2018-03-16T06:10:38.698Z,995.43
2018-03-16T06:11:38.717Z,995.43
2018-03-16T06:12:38.707Z,995.43
2018-03-16T06:13:38.716Z,995.47
2018-03-16T06:14:38.716Z,995.52
2018-03-16T06:15:38.715Z,995.53
2018-03-16T06:16:38.713Z,995.52
2018-03-16T06:17:38.722Z,995.52
2018-03-16T06:18:38.725Z,995.52
2018-03-16T06:19:38.757Z,995.51
2018-03-16T06:20:38.716Z,995.53
2018-03-16T06:21:38.735Z,995.57
2018-03-16T06:22:38.733Z,995.62
2018-03-16T06:23:38.717Z,995.60
2018-03-16T06:24:38.717Z,995.62
2018-03-16T06:25:38.721Z,995.59
2018-03-16T06:26:38.724Z,995.62
2018-03-16T06:27:38.730Z,995.60
2018-03-16T06:28:38.725Z,995.65
2018-03-16T06:29:38.732Z,995.61
2018-03-16T06:30:38.735Z,995.63
2018-03-16T06:31:38.741Z,995.66
2018-03-16T06:32:38.764Z,995.65
2018-03-16T06:33:38.769Z,995.66
2018-03-16T06:34:38.746Z,995.67
2018-03-16T06:35:38.738Z,995.76
2018-03-16T06:36:38.756Z,995.73
2018-03-16T06:37:38.756Z,995.73
2018-03-16T06:38:38.747Z,995.74
2018-03-16T06:39:38.767Z,995.72
2018-03-16T06:40:38.780Z,995.77
2018-03-16T06:41:38.754Z,995.76
2018-03-16T06:42:38.752Z,995.83
2018-03-16T06:43:38.745Z,995.85
2018-03-16T06:44:38.840Z,995.82
2018-03-16T06:45:38.765Z,995.87
2018-03-16T06:46:38.755Z,995.83
2018-03-16T06:47:38.760Z,995.88
2018-03-16T06:48:38.760Z,995.89
2018-03-16T06:49:38.766Z,995.89
2018-03-16T06:50:38.761Z,995.92
2018-03-16T06:51:38.771Z,995.91
2018-03-16T06:52:38.769Z,995.90
2018-03-16T06:53:38.786Z,995.88
2018-03-16T06:54:38.816Z,995.94
2018-03-16T06:55:38.793Z,995.99
2018-03-16T06:56:38.804Z,995.94
2018-03-16T06:57:38.781Z,995.95
2018-03-16T06:58:38.790Z,995.97
2018-03-16T06:59:38.805Z,995.98
2018-03-16T07:00:38.780Z,995.98
2018-03-16T07:01:38.778Z,995.97
2018-03-16T07:02:38.779Z,996.01
2018-03-16T07:03:38.801Z,996.04
2018-03-16T07:04:38.787Z,996.06
2018-03-16T07:05:38.790Z,996.12
2018-03-16T07:06:38.788Z,996.10
2018-03-16T07:07:38.807Z,996.12
2018-03-16T07:08:38.800Z,996.13
2018-03-16T07:09:38.811Z,996.15
2018-03-16T07:10:38.804Z,996.14
2018-03-16T07:11:38.807Z,996.23
2018-03-16T07:12:38.835Z,996.17
2018-03-16T07:13:38.825Z,996.23
2018-03-16T07:14:38.843Z,996.19
2018-03-16T07:15:38.844Z,996.22
2018-03-16T07:16:38.828Z,996.25
2018-03-16T07:17:38.901Z,996.20
2018-03-16T07:18:38.827Z,996.20
2018-03-16T07:19:38.831Z,996.30
2018-03-16T07:20:38.842Z,996.31
2018-03-16T07:21:38.815Z,996.31
2018-03-16T07:22:38.819Z,996.34
2018-03-16T07:23:38.891Z,996.40
2018-03-16T07:24:38.835Z,996.39
2018-03-16T07:25:38.828Z,996.37
2018-03-16T07:26:38.822Z,996.35
2018-03-16T07:27:38.825Z,996.39
2018-03-16T07:28:38.826Z,996.47
2018-03-16T07:29:38.874Z,996.44
2018-03-16T07:30:38.850Z,996.36
2018-03-16T07:31:38.864Z,996.42
2018-03-16T07:32:38.853Z,996.47
2018-03-16T07:33:38.839Z,996.48
2018-03-16T07:34:38.837Z,996.44
2018-03-16T07:35:38.873Z,996.44
2018-03-16T07:36:38.855Z,996.41
2018-03-16T07:37:38.843Z,996.52
2018-03-16T07:38:38.915Z,996.46
2018-03-16T07:39:38.862Z,996.53
2018-03-16T07:40:38.857Z,996.48
2018-03-16T07:41:38.875Z,996.53
2018-03-16T07:42:38.849Z,996.47
2018-03-16T07:43:38.856Z,996.45
2018-03-16T07:44:38.855Z,996.53
2018-03-16T07:45:38.855Z,996.56
2018-03-16T07:46:38.864Z,996.56
2018-03-16T07:47:38.890Z,996.58
2018-03-16T07:48:38.880Z,996.58
2018-03-16T07:49:38.880Z,996.55
2018-03-16T07:50:38.875Z,996.58
2018-03-16T07:51:38.875Z,996.56
2018-03-16T07:52:38.872Z,996.61
2018-03-16T07:53:38.896Z,996.59
2018-03-16T07:54:38.891Z,996.63
2018-03-16T07:55:38.880Z,996.59
2018-03-16T07:56:38.888Z,996.66
2018-03-16T07:57:38.888Z,996.60
2018-03-16T07:58:38.879Z,996.65
2018-03-16T07:59:38.881Z,996.63
2018-03-16T08:00:38.890Z,996.63
2018-03-16T08:01:38.885Z,996.63
2018-03-16T08:02:38.894Z,996.67
2018-03-16T08:03:38.922Z,996.72
2018-03-16T08:04:38.892Z,996.71
2018-03-16T08:05:38.893Z,996.79
2018-03-16T08:06:39.059Z,996.75
2018-03-16T08:07:39.029Z,996.77
2018-03-16T08:08:38.910Z,996.79
2018-03-16T08:09:38.896Z,996.79
2018-03-16T08:10:38.906Z,996.81
2018-03-16T08:11:38.906Z,996.85
2018-03-16T08:12:38.911Z,996.87
2018-03-16T08:13:38.921Z,996.84
2018-03-16T08:14:38.917Z,996.87
2018-03-16T08:15:38.919Z,996.87
2018-03-16T08:16:38.923Z,996.89
2018-03-16T08:17:38.916Z,996.91
2018-03-16T08:18:38.925Z,996.91
2018-03-16T08:19:38.914Z,996.94
2018-03-16T08:20:38.919Z,996.96
2018-03-16T08:21:38.932Z,996.97
2018-03-16T08:22:38.933Z,996.97
2018-03-16T08:23:38.925Z,996.99
2018-03-16T08:24:38.936Z,997.00
2018-03-16T08:25:38.942Z,997.03
2018-03-16T08:26:38.944Z,997.02
2018-03-16T08:27:38.940Z,997.03
2018-03-16T08:28:38.942Z,997.03
2018-03-16T08:29:38.949Z,997.02
2018-03-16T08:30:38.948Z,997.01
2018-03-16T08:31:38.959Z,997.00
2018-03-16T08:32:38.968Z,997.04
2018-03-16T08:33:38.945Z,997.03
2018-03-16T08:34:38.953Z,997.08
2018-03-16T08:35:38.948Z,997.09
2018-03-16T08:36:38.960Z,997.06
2018-03-16T08:37:38.952Z,997.12
2018-03-16T08:38:39.022Z,997.13
2018-03-16T08:39:38.978Z,997.18
2018-03-16T08:40:38.964Z,997.13
2018-03-16T08:41:38.958Z,997.19
2018-03-16T08:42:38.967Z,997.17
2018-03-16T08:43:38.981Z,997.14
2018-03-16T08:44:38.985Z,997.20
2018-03-16T08:45:39.009Z,997.18
2018-03-16T08:46:38.978Z,997.19
2018-03-16T08:47:39.058Z,997.22
2018-03-16T08:48:39.072Z,997.26
2018-03-16T08:49:38.988Z,997.24
2018-03-16T08:50:38.983Z,997.25
2018-03-16T08:51:38.990Z,997.25
2018-03-16T08:52:38.995Z,997.25
2018-03-16T08:53:38.979Z,997.26
2018-03-16T08:54:39.003Z,997.30
2018-03-16T08:55:38.999Z,997.28
2018-03-16T08:56:38.999Z,997.30
2018-03-16T08:57:39.000Z,997.25
2018-03-16T08:58:38.998Z,997.25
2018-03-16T08:59:39.007Z,997.27
2018-03-16T09:00:39.703Z,997.31
2018-03-16T09:01:39.005Z,997.29
2018-03-16T09:02:39.003Z,997.31
2018-03-16T09:03:39.007Z,997.28
2018-03-16T09:04:39.027Z,997.29
2018-03-16T09:05:39.004Z,997.30
2018-03-16T09:06:39.014Z,997.26
2018-03-16T09:07:39.017Z,997.29
2018-03-16T09:08:39.150Z,997.34
2018-03-16T09:09:39.097Z,997.36
2018-03-16T09:10:39.035Z,997.30
2018-03-16T09:11:39.052Z,997.33
2018-03-16T09:12:39.084Z,997.36
2018-03-16T09:13:39.049Z,997.36
2018-03-16T09:14:39.060Z,997.36
2018-03-16T09:15:39.070Z,997.39
2018-03-16T09:16:39.035Z,997.37
2018-03-16T09:17:39.039Z,997.32
2018-03-16T09:18:39.166Z,997.43
2018-03-16T09:19:39.050Z,997.40
2018-03-16T09:20:39.046Z,997.46
2018-03-16T09:21:39.037Z,997.44
2018-03-16T09:22:39.047Z,997.43
2018-03-16T09:23:39.132Z,997.48
2018-03-16T09:24:39.059Z,997.51
2018-03-16T09:25:39.062Z,997.47
2018-03-16T09:26:39.057Z,997.52
2018-03-16T09:27:39.063Z,997.53
2018-03-16T09:28:39.070Z,997.53
2018-03-16T09:29:39.069Z,997.54
2018-03-16T09:30:39.063Z,997.49
2018-03-16T09:31:39.091Z,997.54
2018-03-16T09:32:39.083Z,997.54
2018-03-16T09:33:39.071Z,997.49
2018-03-16T09:34:39.066Z,997.56
2018-03-16T09:35:39.088Z,997.60
2018-03-16T09:36:39.100Z,997.64
2018-03-16T09:37:39.078Z,997.56
2018-03-16T09:38:39.085Z,997.59
2018-03-16T09:39:39.096Z,997.56
2018-03-16T09:40:39.080Z,997.49
2018-03-16T09:41:39.088Z,997.57
2018-03-16T09:42:39.084Z,997.58
2018-03-16T09:43:39.099Z,997.58
2018-03-16T09:44:39.089Z,997.63
2018-03-16T09:45:39.094Z,997.62
2018-03-16T09:46:39.100Z,997.60
2018-03-16T09:47:39.095Z,997.57
2018-03-16T09:48:39.099Z,997.64
2018-03-16T09:49:39.094Z,997.66
2018-03-16T09:50:39.144Z,997.64
2018-03-16T09:51:39.115Z,997.68
2018-03-16T09:52:39.137Z,997.68
2018-03-16T09:53:39.120Z,997.65
2018-03-16T09:54:39.126Z,997.71
2018-03-16T09:55:39.148Z,997.74
2018-03-16T09:56:39.131Z,997.73
2018-03-16T09:57:39.161Z,997.68
2018-03-16T09:58:39.120Z,997.66
2018-03-16T09:59:39.117Z,997.71
2018-03-16T10:00:39.130Z,997.71
2018-03-16T10:01:39.161Z,997.66
2018-03-16T10:02:39.124Z,997.73
2018-03-16T10:03:39.126Z,997.72
2018-03-16T10:04:39.129Z,997.74
2018-03-16T10:05:39.128Z,997.68
2018-03-16T10:06:39.135Z,997.74
2018-03-16T10:07:39.134Z,997.70
2018-03-16T10:08:39.135Z,997.75
2018-03-16T10:09:39.138Z,997.73
2018-03-16T10:10:39.139Z,997.77
2018-03-16T10:11:39.149Z,997.83
2018-03-16T10:12:39.162Z,997.79
2018-03-16T10:13:39.147Z,997.75
2018-03-16T10:14:39.153Z,997.77
2018-03-16T10:15:39.174Z,997.82
2018-03-16T10:16:39.182Z,997.76
2018-03-16T10:17:39.160Z,997.81
2018-03-16T10:18:39.172Z,997.80
2018-03-16T10:19:39.199Z,997.72
2018-03-16T10:20:39.160Z,997.77
2018-03-16T10:21:39.152Z,997.78
2018-03-16T10:22:39.167Z,997.80
2018-03-16T10:23:39.161Z,997.86
2018-03-16T10:24:39.167Z,997.81
2018-03-16T10:25:39.162Z,997.84
2018-03-16T10:26:39.267Z,997.85
2018-03-16T10:27:39.171Z,997.79
2018-03-16T10:28:39.171Z,997.80
2018-03-16T10:29:39.176Z,997.83
2018-03-16T10:30:39.183Z,997.84
2018-03-16T10:31:39.200Z,997.86
2018-03-16T10:32:39.188Z,997.89
2018-03-16T10:33:39.195Z,997.89
2018-03-16T10:34:39.189Z,997.87
2018-03-16T10:35:39.207Z,997.84
2018-03-16T10:36:39.212Z,997.91
2018-03-16T10:37:39.201Z,997.89
2018-03-16T10:38:39.192Z,997.93
2018-03-16T10:39:39.200Z,997.95
2018-03-16T10:40:39.237Z,998.02
2018-03-16T10:41:39.192Z,998.02
2018-03-16T10:42:39.197Z,997.97
2018-03-16T10:43:39.204Z,998.04
2018-03-16T10:44:39.204Z,998.04
2018-03-16T10:45:39.197Z,998.03
2018-03-16T10:46:39.203Z,998.02
2018-03-16T10:47:39.215Z,998.06
2018-03-16T10:48:39.209Z,998.04
2018-03-16T10:49:39.214Z,998.07
2018-03-16T10:50:39.230Z,998.08
2018-03-16T10:51:39.225Z,998.11
2018-03-16T10:52:39.258Z,998.12
2018-03-16T10:53:39.227Z,998.05
2018-03-16T10:54:39.223Z,998.12
2018-03-16T10:55:39.229Z,998.12
2018-03-16T10:56:39.250Z,998.11
2018-03-16T10:57:39.221Z,998.14
2018-03-16T10:58:39.227Z,998.11
2018-03-16T10:59:39.252Z,998.15
2018-03-16T11:00:39.237Z,998.16
2018-03-16T11:01:39.248Z,998.12
2018-03-16T11:02:39.265Z,998.15
2018-03-16T11:03:40.214Z,998.14
2018-03-16T11:04:39.242Z,998.15
2018-03-16T11:05:39.235Z,998.13
2018-03-16T11:06:39.270Z,998.16
2018-03-16T11:07:39.247Z,998.17
2018-03-16T11:08:39.271Z,998.20
2018-03-16T11:09:39.253Z,998.16
2018-03-16T11:10:39.278Z,998.19
2018-03-16T11:11:39.260Z,998.24
2018-03-16T11:12:39.255Z,998.22
2018-03-16T11:13:39.270Z,998.24
2018-03-16T11:14:39.272Z,998.31
2018-03-16T11:15:39.278Z,998.27
2018-03-16T11:16:39.268Z,998.29
2018-03-16T11:17:39.269Z,998.36
2018-03-16T11:18:39.275Z,998.32
2018-03-16T11:19:39.277Z,998.30
2018-03-16T11:20:39.286Z,998.34
2018-03-16T11:21:39.284Z,998.38
2018-03-16T11:22:39.290Z,998.35
2018-03-16T11:23:40.240Z,998.42
2018-03-16T11:24:39.331Z,998.38
2018-03-16T11:25:39.305Z,998.37
2018-03-16T11:26:39.307Z,998.38
2018-03-16T11:27:39.299Z,998.37
2018-03-16T11:28:39.295Z,998.41
2018-03-16T11:29:39.291Z,998.33
2018-03-16T11:30:39.306Z,998.40
2018-03-16T11:31:39.306Z,998.43
2018-03-16T11:32:39.303Z,998.43
2018-03-16T11:33:39.301Z,998.35
2018-03-16T11:34:39.305Z,998.40
2018-03-16T11:35:39.334Z,998.44
2018-03-16T11:36:39.323Z,998.43
2018-03-16T11:37:39.312Z,998.38
2018-03-16T11:38:39.312Z,998.49
2018-03-16T11:39:39.320Z,998.44
2018-03-16T11:40:39.376Z,998.39
2018-03-16T11:41:39.415Z,998.40
2018-03-16T11:42:39.368Z,998.39
2018-03-16T11:43:39.344Z,998.49
2018-03-16T11:44:39.340Z,998.44
2018-03-16T11:45:39.340Z,998.48
2018-03-16T11:46:39.338Z,998.53
2018-03-16T11:47:39.355Z,998.50
2018-03-16T11:48:39.347Z,998.51
2018-03-16T11:49:39.467Z,998.50
2018-03-16T11:50:39.503Z,998.53
2018-03-16T11:51:39.346Z,998.52
2018-03-16T11:52:39.342Z,998.54
2018-03-16T11:53:39.496Z,998.63
2018-03-16T11:54:39.351Z,998.57
2018-03-16T11:55:39.350Z,998.48
2018-03-16T11:56:39.360Z,998.53
2018-03-16T11:57:39.564Z,998.55
2018-03-16T11:58:39.356Z,998.56
2018-03-16T11:59:39.497Z,998.60
2018-03-16T12:00:39.363Z,998.53
2018-03-16T12:01:39.370Z,998.61
2018-03-16T12:02:39.375Z,998.68
2018-03-16T12:03:39.403Z,998.70
2018-03-16T12:04:39.377Z,998.69
2018-03-16T12:05:39.606Z,998.67
2018-03-16T12:06:39.375Z,998.72
2018-03-16T12:07:39.382Z,998.74
2018-03-16T12:08:39.383Z,998.76
2018-03-16T12:09:39.381Z,998.76
2018-03-16T12:10:39.392Z,998.73
2018-03-16T12:11:39.387Z,998.72
2018-03-16T12:12:39.389Z,998.75
2018-03-16T12:13:39.398Z,998.77
2018-03-16T12:14:39.386Z,998.78
2018-03-16T12:15:39.396Z,998.78
2018-03-16T12:16:39.424Z,998.80
2018-03-16T12:17:39.410Z,998.79
2018-03-16T12:18:39.415Z,998.84
2018-03-16T12:19:39.405Z,998.74
2018-03-16T12:20:39.446Z,998.76
2018-03-16T12:21:39.426Z,998.82
2018-03-16T12:22:39.413Z,998.75
2018-03-16T12:23:39.407Z,998.73
2018-03-16T12:24:39.420Z,998.79
2018-03-16T12:25:39.415Z,998.80
2018-03-16T12:26:39.420Z,998.76
2018-03-16T12:27:39.414Z,998.78
2018-03-16T12:28:49.696Z,998.80